sensor_id;sensor_type;location;lat;lon;timestamp;temperature;humidity
19279;DHT22;9773;47.062;15.446;2023-07-13T00:00:34;22.10;99.70
19279;DHT22;9773;47.062;15.446;2023-07-13T00:02:59;22.10;99.30
19279;DHT22;9773;47.062;15.446;2023-07-13T00:05:25;22.30;99.20
19279;DHT22;9773;47.062;15.446;2023-07-13T00:07:52;22.20;99.00
19279;DHT22;9773;47.062;15.446;2023-07-13T00:10:17;22.10;98.50
19279;DHT22;9773;47.062;15.446;2023-07-13T00:12:44;22.10;98.60
19279;DHT22;9773;47.062;15.446;2023-07-13T00:15:16;22.00;98.80
19279;DHT22;9773;47.062;15.446;2023-07-13T00:17:43;21.80;99.20
19279;DHT22;9773;47.062;15.446;2023-07-13T00:20:11;21.70;99.40
19279;DHT22;9773;47.062;15.446;2023-07-13T00:22:37;21.70;99.60
19279;DHT22;9773;47.062;15.446;2023-07-13T00:25:03;21.60;99.70
19279;DHT22;9773;47.062;15.446;2023-07-13T00:27:29;21.60;99.80
19279;DHT22;9773;47.062;15.446;2023-07-13T00:29:58;21.60;99.90
19279;DHT22;9773;47.062;15.446;2023-07-13T00:32:24;21.50;99.90
19279;DHT22;9773;47.062;15.446;2023-07-13T00:34:51;21.40;99.90
19279;DHT22;9773;47.062;15.446;2023-07-13T00:37:17;21.30;99.90
19279;DHT22;9773;47.062;15.446;2023-07-13T00:39:43;21.40;99.90
19279;DHT22;9773;47.062;15.446;2023-07-13T00:42:09;21.30;99.90
19279;DHT22;9773;47.062;15.446;2023-07-13T00:44:35;21.30;99.90
19279;DHT22;9773;47.062;15.446;2023-07-13T00:47:01;21.30;99.90
19279;DHT22;9773;47.062;15.446;2023-07-13T00:49:30;21.20;99.90
19279;DHT22;9773;47.062;15.446;2023-07-13T00:52:06;21.30;99.90
19279;DHT22;9773;47.062;15.446;2023-07-13T00:54:43;21.20;99.90
19279;DHT22;9773;47.062;15.446;2023-07-13T00:57:14;21.20;99.90
19279;DHT22;9773;47.062;15.446;2023-07-13T00:59:42;21.10;99.90
19279;DHT22;9773;47.062;15.446;2023-07-13T01:02:09;21.00;99.90
19279;DHT22;9773;47.062;15.446;2023-07-13T01:04:35;21.10;99.90
19279;DHT22;9773;47.062;15.446;2023-07-13T01:07:01;21.10;99.90
19279;DHT22;9773;47.062;15.446;2023-07-13T01:09:27;21.10;99.90
19279;DHT22;9773;47.062;15.446;2023-07-13T01:11:53;21.10;99.90
19279;DHT22;9773;47.062;15.446;2023-07-13T01:14:19;21.10;99.90
19279;DHT22;9773;47.062;15.446;2023-07-13T01:16:46;21.00;99.90
19279;DHT22;9773;47.062;15.446;2023-07-13T01:24:38;21.00;99.90
19279;DHT22;9773;47.062;15.446;2023-07-13T01:27:06;21.00;99.90
19279;DHT22;9773;47.062;15.446;2023-07-13T01:29:33;21.00;99.90
19279;DHT22;9773;47.062;15.446;2023-07-13T01:32:00;21.00;99.90
19279;DHT22;9773;47.062;15.446;2023-07-13T01:34:27;20.90;99.90
19279;DHT22;9773;47.062;15.446;2023-07-13T01:36:53;20.80;99.90
19279;DHT22;9773;47.062;15.446;2023-07-13T01:39:22;20.90;99.90
19279;DHT22;9773;47.062;15.446;2023-07-13T01:41:48;20.80;99.90
19279;DHT22;9773;47.062;15.446;2023-07-13T01:44:14;20.70;99.90
19279;DHT22;9773;47.062;15.446;2023-07-13T01:46:40;20.50;99.90
19279;DHT22;9773;47.062;15.446;2023-07-13T01:49:05;20.40;99.90
19279;DHT22;9773;47.062;15.446;2023-07-13T01:51:31;20.10;99.90
19279;DHT22;9773;47.062;15.446;2023-07-13T01:53:57;20.00;99.90
19279;DHT22;9773;47.062;15.446;2023-07-13T01:56:23;20.00;99.90
19279;DHT22;9773;47.062;15.446;2023-07-13T01:58:50;20.00;99.90
19279;DHT22;9773;47.062;15.446;2023-07-13T02:01:15;19.90;99.90
19279;DHT22;9773;47.062;15.446;2023-07-13T02:03:41;19.90;99.90
19279;DHT22;9773;47.062;15.446;2023-07-13T02:06:07;19.70;99.90
19279;DHT22;9773;47.062;15.446;2023-07-13T02:08:33;19.60;99.90
19279;DHT22;9773;47.062;15.446;2023-07-13T02:10:59;19.60;99.90
19279;DHT22;9773;47.062;15.446;2023-07-13T02:13:25;19.60;99.90
19279;DHT22;9773;47.062;15.446;2023-07-13T02:15:51;19.60;99.90
19279;DHT22;9773;47.062;15.446;2023-07-13T02:18:17;19.50;99.90
19279;DHT22;9773;47.062;15.446;2023-07-13T02:20:44;19.50;99.90
19279;DHT22;9773;47.062;15.446;2023-07-13T02:23:10;19.60;99.90
19279;DHT22;9773;47.062;15.446;2023-07-13T02:25:36;19.60;99.90
19279;DHT22;9773;47.062;15.446;2023-07-13T02:28:02;19.70;99.90
19279;DHT22;9773;47.062;15.446;2023-07-13T02:30:29;19.70;99.90
19279;DHT22;9773;47.062;15.446;2023-07-13T02:32:56;19.80;99.90
19279;DHT22;9773;47.062;15.446;2023-07-13T02:35:22;19.80;99.90
19279;DHT22;9773;47.062;15.446;2023-07-13T02:37:48;19.80;99.90
19279;DHT22;9773;47.062;15.446;2023-07-13T02:40:14;19.70;99.90
19279;DHT22;9773;47.062;15.446;2023-07-13T02:42:40;19.50;99.90
19279;DHT22;9773;47.062;15.446;2023-07-13T02:45:07;19.30;99.90
19279;DHT22;9773;47.062;15.446;2023-07-13T02:47:33;19.20;99.90
19279;DHT22;9773;47.062;15.446;2023-07-13T02:49:59;19.20;99.90
19279;DHT22;9773;47.062;15.446;2023-07-13T02:52:25;19.00;99.90
19279;DHT22;9773;47.062;15.446;2023-07-13T02:54:51;18.90;99.90
19279;DHT22;9773;47.062;15.446;2023-07-13T02:57:16;18.90;99.90
19279;DHT22;9773;47.062;15.446;2023-07-13T02:59:42;18.90;99.90
19279;DHT22;9773;47.062;15.446;2023-07-13T03:02:08;19.00;99.90
19279;DHT22;9773;47.062;15.446;2023-07-13T03:04:36;19.00;99.90
19279;DHT22;9773;47.062;15.446;2023-07-13T03:07:03;19.00;99.90
19279;DHT22;9773;47.062;15.446;2023-07-13T03:09:29;19.00;99.90
19279;DHT22;9773;47.062;15.446;2023-07-13T03:11:56;19.00;99.90
19279;DHT22;9773;47.062;15.446;2023-07-13T03:14:23;19.10;99.90
19279;DHT22;9773;47.062;15.446;2023-07-13T03:16:49;19.20;99.90
19279;DHT22;9773;47.062;15.446;2023-07-13T03:19:15;19.20;99.90
19279;DHT22;9773;47.062;15.446;2023-07-13T03:21:40;19.20;99.90
19279;DHT22;9773;47.062;15.446;2023-07-13T03:24:06;19.30;99.90
19279;DHT22;9773;47.062;15.446;2023-07-13T03:26:32;19.30;99.90
19279;DHT22;9773;47.062;15.446;2023-07-13T03:28:58;19.30;99.90
19279;DHT22;9773;47.062;15.446;2023-07-13T03:31:28;19.30;99.90
19279;DHT22;9773;47.062;15.446;2023-07-13T03:33:58;19.30;99.90
19279;DHT22;9773;47.062;15.446;2023-07-13T03:36:27;19.30;99.90
19279;DHT22;9773;47.062;15.446;2023-07-13T03:38:56;19.30;99.90
19279;DHT22;9773;47.062;15.446;2023-07-13T03:41:24;19.40;99.90
19279;DHT22;9773;47.062;15.446;2023-07-13T03:43:51;19.40;99.90
19279;DHT22;9773;47.062;15.446;2023-07-13T03:46:17;19.40;99.90
19279;DHT22;9773;47.062;15.446;2023-07-13T03:48:45;19.40;99.90
19279;DHT22;9773;47.062;15.446;2023-07-13T03:51:13;19.40;99.90
19279;DHT22;9773;47.062;15.446;2023-07-13T03:53:44;19.30;99.90
19279;DHT22;9773;47.062;15.446;2023-07-13T03:56:10;19.10;99.90
19279;DHT22;9773;47.062;15.446;2023-07-13T03:58:38;19.00;99.90
19279;DHT22;9773;47.062;15.446;2023-07-13T04:01:07;19.00;99.90
19279;DHT22;9773;47.062;15.446;2023-07-13T04:03:34;19.10;99.90
19279;DHT22;9773;47.062;15.446;2023-07-13T04:06:01;19.20;99.90
19279;DHT22;9773;47.062;15.446;2023-07-13T04:08:29;19.30;99.90
19279;DHT22;9773;47.062;15.446;2023-07-13T04:10:57;19.20;99.90
19279;DHT22;9773;47.062;15.446;2023-07-13T04:13:23;19.10;99.90
19279;DHT22;9773;47.062;15.446;2023-07-13T04:15:49;19.10;99.90
19279;DHT22;9773;47.062;15.446;2023-07-13T04:18:15;19.00;99.90
19279;DHT22;9773;47.062;15.446;2023-07-13T04:20:41;19.20;99.90
19279;DHT22;9773;47.062;15.446;2023-07-13T04:23:07;19.20;99.90
19279;DHT22;9773;47.062;15.446;2023-07-13T04:25:33;19.20;99.90
19279;DHT22;9773;47.062;15.446;2023-07-13T04:27:58;19.10;99.90
19279;DHT22;9773;47.062;15.446;2023-07-13T04:30:26;19.00;99.90
19279;DHT22;9773;47.062;15.446;2023-07-13T04:32:53;19.00;99.90
19279;DHT22;9773;47.062;15.446;2023-07-13T04:35:20;19.00;99.90
19279;DHT22;9773;47.062;15.446;2023-07-13T04:37:49;18.90;99.90
19279;DHT22;9773;47.062;15.446;2023-07-13T04:40:19;18.90;99.90
19279;DHT22;9773;47.062;15.446;2023-07-13T04:42:46;18.90;99.90
19279;DHT22;9773;47.062;15.446;2023-07-13T04:45:13;19.00;99.90
19279;DHT22;9773;47.062;15.446;2023-07-13T04:47:40;19.00;99.90
19279;DHT22;9773;47.062;15.446;2023-07-13T04:50:08;19.00;99.90
19279;DHT22;9773;47.062;15.446;2023-07-13T04:52:36;19.20;99.90
19279;DHT22;9773;47.062;15.446;2023-07-13T04:55:01;19.20;99.90
19279;DHT22;9773;47.062;15.446;2023-07-13T04:57:28;19.40;99.90
19279;DHT22;9773;47.062;15.446;2023-07-13T04:59:53;19.40;99.90
19279;DHT22;9773;47.062;15.446;2023-07-13T05:02:22;19.30;99.90
19279;DHT22;9773;47.062;15.446;2023-07-13T05:04:48;19.40;99.90
19279;DHT22;9773;47.062;15.446;2023-07-13T05:07:14;19.50;99.90
19279;DHT22;9773;47.062;15.446;2023-07-13T05:09:40;19.50;99.90
19279;DHT22;9773;47.062;15.446;2023-07-13T05:12:08;19.50;99.90
19279;DHT22;9773;47.062;15.446;2023-07-13T05:14:34;19.50;99.90
19279;DHT22;9773;47.062;15.446;2023-07-13T05:17:00;19.50;99.90
19279;DHT22;9773;47.062;15.446;2023-07-13T05:19:27;19.60;99.90
19279;DHT22;9773;47.062;15.446;2023-07-13T05:21:53;19.70;99.90
19279;DHT22;9773;47.062;15.446;2023-07-13T05:24:19;19.80;99.90
19279;DHT22;9773;47.062;15.446;2023-07-13T05:26:45;19.90;99.90
19279;DHT22;9773;47.062;15.446;2023-07-13T05:29:11;20.00;99.90
19279;DHT22;9773;47.062;15.446;2023-07-13T05:31:37;20.00;99.90
19279;DHT22;9773;47.062;15.446;2023-07-13T05:34:02;19.90;99.90
19279;DHT22;9773;47.062;15.446;2023-07-13T05:36:28;19.90;99.90
19279;DHT22;9773;47.062;15.446;2023-07-13T05:38:54;20.00;99.90
19279;DHT22;9773;47.062;15.446;2023-07-13T05:41:20;20.10;99.90
19279;DHT22;9773;47.062;15.446;2023-07-13T05:43:45;20.20;99.90
19279;DHT22;9773;47.062;15.446;2023-07-13T05:46:11;20.30;99.90
19279;DHT22;9773;47.062;15.446;2023-07-13T05:48:37;20.40;99.90
19279;DHT22;9773;47.062;15.446;2023-07-13T05:51:13;20.50;99.90
19279;DHT22;9773;47.062;15.446;2023-07-13T05:53:40;20.70;99.90
19279;DHT22;9773;47.062;15.446;2023-07-13T05:56:06;20.60;99.90
19279;DHT22;9773;47.062;15.446;2023-07-13T05:58:32;20.60;99.90
19279;DHT22;9773;47.062;15.446;2023-07-13T06:01:06;20.70;99.90
19279;DHT22;9773;47.062;15.446;2023-07-13T06:03:33;20.60;99.90
19279;DHT22;9773;47.062;15.446;2023-07-13T06:05:59;20.60;99.90
19279;DHT22;9773;47.062;15.446;2023-07-13T06:08:28;20.60;99.90
19279;DHT22;9773;47.062;15.446;2023-07-13T06:10:55;20.50;99.90
19279;DHT22;9773;47.062;15.446;2023-07-13T06:13:26;20.60;99.90
19279;DHT22;9773;47.062;15.446;2023-07-13T06:15:52;20.70;99.90
19279;DHT22;9773;47.062;15.446;2023-07-13T06:18:18;20.80;99.90
19279;DHT22;9773;47.062;15.446;2023-07-13T06:20:43;20.90;99.90
19279;DHT22;9773;47.062;15.446;2023-07-13T06:23:09;20.90;99.90
19279;DHT22;9773;47.062;15.446;2023-07-13T06:25:35;20.90;99.90
19279;DHT22;9773;47.062;15.446;2023-07-13T06:28:01;20.90;99.90
19279;DHT22;9773;47.062;15.446;2023-07-13T06:30:27;20.90;99.90
19279;DHT22;9773;47.062;15.446;2023-07-13T06:32:53;21.10;99.90
19279;DHT22;9773;47.062;15.446;2023-07-13T06:35:19;21.20;99.90
19279;DHT22;9773;47.062;15.446;2023-07-13T06:37:45;21.30;99.90
19279;DHT22;9773;47.062;15.446;2023-07-13T06:40:10;21.40;99.90
19279;DHT22;9773;47.062;15.446;2023-07-13T06:42:36;21.50;99.90
19279;DHT22;9773;47.062;15.446;2023-07-13T06:45:04;21.60;99.90
19279;DHT22;9773;47.062;15.446;2023-07-13T06:47:30;21.70;99.90
19279;DHT22;9773;47.062;15.446;2023-07-13T06:49:55;21.70;99.90
19279;DHT22;9773;47.062;15.446;2023-07-13T06:52:21;21.70;99.90
19279;DHT22;9773;47.062;15.446;2023-07-13T06:54:47;21.80;99.90
19279;DHT22;9773;47.062;15.446;2023-07-13T06:57:13;21.80;99.90
19279;DHT22;9773;47.062;15.446;2023-07-13T06:59:38;21.70;99.90
19279;DHT22;9773;47.062;15.446;2023-07-13T07:02:04;21.60;99.90
19279;DHT22;9773;47.062;15.446;2023-07-13T07:04:30;21.70;99.90
19279;DHT22;9773;47.062;15.446;2023-07-13T07:06:56;21.70;99.90
19279;DHT22;9773;47.062;15.446;2023-07-13T07:09:22;21.80;99.90
19279;DHT22;9773;47.062;15.446;2023-07-13T07:11:47;21.90;99.90
19279;DHT22;9773;47.062;15.446;2023-07-13T07:14:13;21.90;99.90
19279;DHT22;9773;47.062;15.446;2023-07-13T07:16:39;21.90;99.90
19279;DHT22;9773;47.062;15.446;2023-07-13T07:19:05;22.00;99.90
19279;DHT22;9773;47.062;15.446;2023-07-13T07:21:30;22.10;99.90
19279;DHT22;9773;47.062;15.446;2023-07-13T07:23:56;22.30;99.90
19279;DHT22;9773;47.062;15.446;2023-07-13T07:26:22;22.30;99.90
19279;DHT22;9773;47.062;15.446;2023-07-13T07:28:48;22.50;99.90
19279;DHT22;9773;47.062;15.446;2023-07-13T07:31:14;22.60;99.90
19279;DHT22;9773;47.062;15.446;2023-07-13T07:33:39;22.70;99.90
19279;DHT22;9773;47.062;15.446;2023-07-13T07:36:05;22.90;99.90
19279;DHT22;9773;47.062;15.446;2023-07-13T07:38:31;23.00;99.90
19279;DHT22;9773;47.062;15.446;2023-07-13T07:40:57;23.10;99.90
19279;DHT22;9773;47.062;15.446;2023-07-13T07:43:23;23.10;99.90
19279;DHT22;9773;47.062;15.446;2023-07-13T07:45:49;23.10;99.90
19279;DHT22;9773;47.062;15.446;2023-07-13T07:48:14;23.30;99.90
19279;DHT22;9773;47.062;15.446;2023-07-13T07:50:40;23.30;99.90
19279;DHT22;9773;47.062;15.446;2023-07-13T07:53:06;23.50;99.90
19279;DHT22;9773;47.062;15.446;2023-07-13T07:55:34;23.60;99.90
19279;DHT22;9773;47.062;15.446;2023-07-13T07:58:03;23.70;99.90
19279;DHT22;9773;47.062;15.446;2023-07-13T08:00:28;23.80;99.90
19279;DHT22;9773;47.062;15.446;2023-07-13T08:02:58;23.80;99.90
19279;DHT22;9773;47.062;15.446;2023-07-13T08:05:25;23.80;99.90
19279;DHT22;9773;47.062;15.446;2023-07-13T08:07:51;23.80;99.90
19279;DHT22;9773;47.062;15.446;2023-07-13T08:10:18;23.90;99.90
19279;DHT22;9773;47.062;15.446;2023-07-13T08:12:44;24.00;99.90
19279;DHT22;9773;47.062;15.446;2023-07-13T08:15:13;23.90;99.90
19279;DHT22;9773;47.062;15.446;2023-07-13T08:17:39;23.90;99.90
19279;DHT22;9773;47.062;15.446;2023-07-13T08:20:05;24.00;99.90
19279;DHT22;9773;47.062;15.446;2023-07-13T08:22:31;24.20;99.90
19279;DHT22;9773;47.062;15.446;2023-07-13T08:24:57;24.20;99.90
19279;DHT22;9773;47.062;15.446;2023-07-13T08:27:24;24.30;99.90
19279;DHT22;9773;47.062;15.446;2023-07-13T08:29:51;24.40;99.90
19279;DHT22;9773;47.062;15.446;2023-07-13T08:32:17;24.40;99.90
19279;DHT22;9773;47.062;15.446;2023-07-13T08:34:43;24.50;99.90
19279;DHT22;9773;47.062;15.446;2023-07-13T08:37:10;24.60;99.90
19279;DHT22;9773;47.062;15.446;2023-07-13T08:39:36;24.80;99.90
19279;DHT22;9773;47.062;15.446;2023-07-13T08:42:36;24.80;99.90
19279;DHT22;9773;47.062;15.446;2023-07-13T08:45:23;24.90;99.90
19279;DHT22;9773;47.062;15.446;2023-07-13T08:47:53;24.90;99.90
19279;DHT22;9773;47.062;15.446;2023-07-13T08:50:23;25.00;99.90
19279;DHT22;9773;47.062;15.446;2023-07-13T08:52:52;25.10;99.60
19279;DHT22;9773;47.062;15.446;2023-07-13T08:55:26;25.10;99.70
19279;DHT22;9773;47.062;15.446;2023-07-13T08:58:00;25.30;98.40
19279;DHT22;9773;47.062;15.446;2023-07-13T09:01:22;25.40;97.30
19279;DHT22;9773;47.062;15.446;2023-07-13T09:03:27;25.40;97.60
19279;DHT22;9773;47.062;15.446;2023-07-13T09:05:59;25.30;97.50
19279;DHT22;9773;47.062;15.446;2023-07-13T09:14:35;25.70;96.50
19279;DHT22;9773;47.062;15.446;2023-07-13T09:17:11;25.80;96.40
19279;DHT22;9773;47.062;15.446;2023-07-13T09:19:38;25.80;96.40
19279;DHT22;9773;47.062;15.446;2023-07-13T09:22:11;25.80;96.50
19279;DHT22;9773;47.062;15.446;2023-07-13T09:27:30;25.80;95.70
19279;DHT22;9773;47.062;15.446;2023-07-13T09:32:50;26.00;95.50
19279;DHT22;9773;47.062;15.446;2023-07-13T09:35:20;26.20;95.00
19279;DHT22;9773;47.062;15.446;2023-07-13T09:37:48;26.40;94.70
19279;DHT22;9773;47.062;15.446;2023-07-13T09:40:37;26.50;95.30
19279;DHT22;9773;47.062;15.446;2023-07-13T09:43:05;26.60;95.20
19279;DHT22;9773;47.062;15.446;2023-07-13T09:45:34;26.60;94.40
19279;DHT22;9773;47.062;15.446;2023-07-13T09:48:07;26.60;94.10
19279;DHT22;9773;47.062;15.446;2023-07-13T09:50:36;26.50;94.20
19279;DHT22;9773;47.062;15.446;2023-07-13T09:53:02;26.60;94.30
19279;DHT22;9773;47.062;15.446;2023-07-13T09:55:39;26.70;94.90
19279;DHT22;9773;47.062;15.446;2023-07-13T09:58:17;26.70;94.60
19279;DHT22;9773;47.062;15.446;2023-07-13T10:00:57;26.80;94.20
19279;DHT22;9773;47.062;15.446;2023-07-13T10:03:28;26.70;94.50
19279;DHT22;9773;47.062;15.446;2023-07-13T10:05:54;26.90;94.30
19279;DHT22;9773;47.062;15.446;2023-07-13T10:08:30;26.90;93.90
19279;DHT22;9773;47.062;15.446;2023-07-13T10:11:08;27.00;94.00
19279;DHT22;9773;47.062;15.446;2023-07-13T10:13:40;26.90;94.20
19279;DHT22;9773;47.062;15.446;2023-07-13T10:16:09;27.10;93.80
19279;DHT22;9773;47.062;15.446;2023-07-13T10:18:49;27.10;93.40
19279;DHT22;9773;47.062;15.446;2023-07-13T10:21:20;27.30;93.80
19279;DHT22;9773;47.062;15.446;2023-07-13T10:23:57;27.30;93.40
19279;DHT22;9773;47.062;15.446;2023-07-13T10:26:29;27.30;93.00
19279;DHT22;9773;47.062;15.446;2023-07-13T10:28:59;27.30;92.30
19279;DHT22;9773;47.062;15.446;2023-07-13T10:31:26;27.40;92.70
19279;DHT22;9773;47.062;15.446;2023-07-13T10:33:52;27.50;92.90
19279;DHT22;9773;47.062;15.446;2023-07-13T10:38:51;27.50;92.50
19279;DHT22;9773;47.062;15.446;2023-07-13T10:41:21;27.70;92.20
19279;DHT22;9773;47.062;15.446;2023-07-13T10:43:51;28.00;91.70
19279;DHT22;9773;47.062;15.446;2023-07-13T10:46:20;28.20;91.70
19279;DHT22;9773;47.062;15.446;2023-07-13T10:48:52;28.40;91.80
19279;DHT22;9773;47.062;15.446;2023-07-13T10:51:20;28.30;92.20
19279;DHT22;9773;47.062;15.446;2023-07-13T10:53:47;28.10;92.20
19279;DHT22;9773;47.062;15.446;2023-07-13T10:59:14;28.00;91.90
19279;DHT22;9773;47.062;15.446;2023-07-13T11:01:54;28.00;92.20
19279;DHT22;9773;47.062;15.446;2023-07-13T11:04:22;28.00;91.60
19279;DHT22;9773;47.062;15.446;2023-07-13T11:06:53;28.00;92.10
19279;DHT22;9773;47.062;15.446;2023-07-13T11:09:45;28.00;91.20
19279;DHT22;9773;47.062;15.446;2023-07-13T11:22:53;28.60;91.00
19279;DHT22;9773;47.062;15.446;2023-07-13T11:25:33;28.80;92.40
19279;DHT22;9773;47.062;15.446;2023-07-13T11:33:24;29.10;92.70
19279;DHT22;9773;47.062;15.446;2023-07-13T11:36:02;29.20;92.50
19279;DHT22;9773;47.062;15.446;2023-07-13T11:38:40;29.00;90.80
19279;DHT22;9773;47.062;15.446;2023-07-13T11:41:28;28.90;91.20
19279;DHT22;9773;47.062;15.446;2023-07-13T11:44:10;28.90;92.10
19279;DHT22;9773;47.062;15.446;2023-07-13T11:46:36;28.70;92.90
19279;DHT22;9773;47.062;15.446;2023-07-13T11:49:06;28.60;92.70
19279;DHT22;9773;47.062;15.446;2023-07-13T11:51:35;28.30;94.50
19279;DHT22;9773;47.062;15.446;2023-07-13T11:54:24;28.20;94.60
19279;DHT22;9773;47.062;15.446;2023-07-13T11:56:52;28.30;95.60
19279;DHT22;9773;47.062;15.446;2023-07-13T11:59:18;28.30;95.40
19279;DHT22;9773;47.062;15.446;2023-07-13T12:01:53;28.20;95.50
19279;DHT22;9773;47.062;15.446;2023-07-13T12:04:25;28.10;96.30
19279;DHT22;9773;47.062;15.446;2023-07-13T12:06:58;28.00;97.00
19279;DHT22;9773;47.062;15.446;2023-07-13T12:09:28;27.90;97.30
19279;DHT22;9773;47.062;15.446;2023-07-13T12:11:57;28.00;98.00
19279;DHT22;9773;47.062;15.446;2023-07-13T12:14:23;28.10;97.50
19279;DHT22;9773;47.062;15.446;2023-07-13T12:16:50;28.10;98.10
19279;DHT22;9773;47.062;15.446;2023-07-13T12:19:22;28.10;98.30
19279;DHT22;9773;47.062;15.446;2023-07-13T12:21:49;28.10;98.40
19279;DHT22;9773;47.062;15.446;2023-07-13T12:24:20;28.20;98.50
19279;DHT22;9773;47.062;15.446;2023-07-13T12:26:58;28.30;98.80
19279;DHT22;9773;47.062;15.446;2023-07-13T12:29:25;28.40;98.50
19279;DHT22;9773;47.062;15.446;2023-07-13T12:31:51;28.40;99.10
19279;DHT22;9773;47.062;15.446;2023-07-13T12:34:22;28.40;98.70
19279;DHT22;9773;47.062;15.446;2023-07-13T12:37:01;28.30;99.20
19279;DHT22;9773;47.062;15.446;2023-07-13T12:39:36;28.00;99.90
19279;DHT22;9773;47.062;15.446;2023-07-13T12:42:31;27.70;99.90
19279;DHT22;9773;47.062;15.446;2023-07-13T12:47:42;27.70;99.90
19279;DHT22;9773;47.062;15.446;2023-07-13T12:50:17;27.50;99.90
19279;DHT22;9773;47.062;15.446;2023-07-13T12:52:44;27.20;99.90
19279;DHT22;9773;47.062;15.446;2023-07-13T12:55:20;26.80;99.90
19279;DHT22;9773;47.062;15.446;2023-07-13T12:57:52;26.60;99.90
19279;DHT22;9773;47.062;15.446;2023-07-13T13:02:56;26.30;99.90
19279;DHT22;9773;47.062;15.446;2023-07-13T13:05:22;26.20;99.90
19279;DHT22;9773;47.062;15.446;2023-07-13T13:07:51;26.10;99.90
19279;DHT22;9773;47.062;15.446;2023-07-13T13:10:17;26.00;99.90
19279;DHT22;9773;47.062;15.446;2023-07-13T13:12:42;25.90;99.90
19279;DHT22;9773;47.062;15.446;2023-07-13T13:15:10;25.80;99.90
19279;DHT22;9773;47.062;15.446;2023-07-13T13:17:37;25.70;99.90
19279;DHT22;9773;47.062;15.446;2023-07-13T13:20:20;25.70;99.90
19279;DHT22;9773;47.062;15.446;2023-07-13T13:22:47;25.40;99.90
19279;DHT22;9773;47.062;15.446;2023-07-13T13:25:14;25.30;99.90
19279;DHT22;9773;47.062;15.446;2023-07-13T13:27:44;25.10;99.90
19279;DHT22;9773;47.062;15.446;2023-07-13T13:32:39;24.90;99.90
19279;DHT22;9773;47.062;15.446;2023-07-13T13:35:12;24.80;99.90
19279;DHT22;9773;47.062;15.446;2023-07-13T13:37:38;24.60;99.90
19279;DHT22;9773;47.062;15.446;2023-07-13T13:40:17;24.40;99.90
19279;DHT22;9773;47.062;15.446;2023-07-13T13:42:43;24.20;99.90
19279;DHT22;9773;47.062;15.446;2023-07-13T13:45:10;24.10;99.90
19279;DHT22;9773;47.062;15.446;2023-07-13T13:47:38;23.90;99.90
19279;DHT22;9773;47.062;15.446;2023-07-13T13:50:16;23.80;99.90
19279;DHT22;9773;47.062;15.446;2023-07-13T13:52:43;23.90;99.90
19279;DHT22;9773;47.062;15.446;2023-07-13T13:55:19;23.90;99.90
19279;DHT22;9773;47.062;15.446;2023-07-13T13:57:46;23.70;99.90
19279;DHT22;9773;47.062;15.446;2023-07-13T14:00:13;23.70;99.90
19279;DHT22;9773;47.062;15.446;2023-07-13T14:02:41;23.80;99.90
19279;DHT22;9773;47.062;15.446;2023-07-13T14:05:13;23.90;99.90
19279;DHT22;9773;47.062;15.446;2023-07-13T14:07:40;24.00;99.90
19279;DHT22;9773;47.062;15.446;2023-07-13T14:10:12;24.10;99.90
19279;DHT22;9773;47.062;15.446;2023-07-13T14:12:39;23.80;99.90
19279;DHT22;9773;47.062;15.446;2023-07-13T14:15:05;23.60;99.90
19279;DHT22;9773;47.062;15.446;2023-07-13T14:17:31;23.50;99.90
19279;DHT22;9773;47.062;15.446;2023-07-13T14:19:59;23.40;99.90
19279;DHT22;9773;47.062;15.446;2023-07-13T14:22:26;23.20;99.90
19279;DHT22;9773;47.062;15.446;2023-07-13T14:24:55;23.00;99.90
19279;DHT22;9773;47.062;15.446;2023-07-13T14:27:24;22.70;99.90
19279;DHT22;9773;47.062;15.446;2023-07-13T14:29:50;22.60;99.90
19279;DHT22;9773;47.062;15.446;2023-07-13T14:32:16;22.50;99.90
19279;DHT22;9773;47.062;15.446;2023-07-13T14:34:42;22.50;99.90
19279;DHT22;9773;47.062;15.446;2023-07-13T14:37:13;22.60;99.90
19279;DHT22;9773;47.062;15.446;2023-07-13T14:39:40;22.60;99.90
19279;DHT22;9773;47.062;15.446;2023-07-13T14:42:09;22.60;99.90
19279;DHT22;9773;47.062;15.446;2023-07-13T14:44:35;22.70;99.90
19279;DHT22;9773;47.062;15.446;2023-07-13T14:47:03;22.60;99.90
19279;DHT22;9773;47.062;15.446;2023-07-13T14:49:31;22.50;99.90
19279;DHT22;9773;47.062;15.446;2023-07-13T14:52:05;22.50;99.90
19279;DHT22;9773;47.062;15.446;2023-07-13T14:54:36;22.40;99.90
19279;DHT22;9773;47.062;15.446;2023-07-13T14:57:10;22.30;99.90
19279;DHT22;9773;47.062;15.446;2023-07-13T14:59:36;22.10;99.90
19279;DHT22;9773;47.062;15.446;2023-07-13T15:02:08;21.90;99.90
19279;DHT22;9773;47.062;15.446;2023-07-13T15:04:38;21.70;99.90
19279;DHT22;9773;47.062;15.446;2023-07-13T15:07:04;21.60;99.90
19279;DHT22;9773;47.062;15.446;2023-07-13T15:09:30;21.60;99.90
19279;DHT22;9773;47.062;15.446;2023-07-13T15:11:57;21.70;99.90
19279;DHT22;9773;47.062;15.446;2023-07-13T15:14:23;21.70;99.90
19279;DHT22;9773;47.062;15.446;2023-07-13T15:16:53;21.70;99.90
19279;DHT22;9773;47.062;15.446;2023-07-13T15:19:21;21.70;99.90
19279;DHT22;9773;47.062;15.446;2023-07-13T15:21:49;21.60;99.90
19279;DHT22;9773;47.062;15.446;2023-07-13T15:24:15;21.60;99.90
19279;DHT22;9773;47.062;15.446;2023-07-13T15:26:42;21.50;99.90
19279;DHT22;9773;47.062;15.446;2023-07-13T15:29:11;21.50;99.90
19279;DHT22;9773;47.062;15.446;2023-07-13T15:31:37;21.40;99.90
19279;DHT22;9773;47.062;15.446;2023-07-13T15:34:24;21.10;99.90
19279;DHT22;9773;47.062;15.446;2023-07-13T15:36:51;20.80;99.90
19279;DHT22;9773;47.062;15.446;2023-07-13T15:39:18;20.60;99.90
19279;DHT22;9773;47.062;15.446;2023-07-13T15:41:45;20.50;99.90
19279;DHT22;9773;47.062;15.446;2023-07-13T15:44:38;20.30;99.90
19279;DHT22;9773;47.062;15.446;2023-07-13T15:47:04;20.40;99.90
19279;DHT22;9773;47.062;15.446;2023-07-13T15:49:29;20.30;99.90
19279;DHT22;9773;47.062;15.446;2023-07-13T15:51:55;20.00;99.90
19279;DHT22;9773;47.062;15.446;2023-07-13T15:54:22;19.90;99.90
19279;DHT22;9773;47.062;15.446;2023-07-13T15:56:54;20.00;99.90
19279;DHT22;9773;47.062;15.446;2023-07-13T15:59:21;20.10;99.90
19279;DHT22;9773;47.062;15.446;2023-07-13T16:01:46;20.20;99.90
19279;DHT22;9773;47.062;15.446;2023-07-13T16:04:14;20.20;99.90
19279;DHT22;9773;47.062;15.446;2023-07-13T16:06:41;20.30;99.90
19279;DHT22;9773;47.062;15.446;2023-07-13T16:09:13;20.30;99.90
19279;DHT22;9773;47.062;15.446;2023-07-13T16:11:42;20.40;99.90
19279;DHT22;9773;47.062;15.446;2023-07-13T16:14:13;20.50;99.90
19279;DHT22;9773;47.062;15.446;2023-07-13T16:16:39;20.50;99.90
19279;DHT22;9773;47.062;15.446;2023-07-13T16:19:05;20.50;99.90
19279;DHT22;9773;47.062;15.446;2023-07-13T16:21:35;20.30;99.90
19279;DHT22;9773;47.062;15.446;2023-07-13T16:24:04;20.20;99.90